createdAt,value
2016-02-11T00:00:27.630Z,0
2016-02-11T00:01:27.665Z,0
2016-02-11T00:02:27.635Z,0
2016-02-11T00:03:27.670Z,0
2016-02-11T00:04:27.657Z,0
2016-02-11T00:05:27.644Z,0
2016-02-11T00:06:27.632Z,0
2016-02-11T00:07:27.619Z,0
2016-02-11T00:08:27.637Z,0
2016-02-11T00:09:27.734Z,0
2016-02-11T00:10:27.643Z,0
2016-02-11T00:11:27.646Z,0
2016-02-11T00:12:27.632Z,0
2016-02-11T00:13:27.620Z,0
2016-02-11T00:14:27.625Z,0
2016-02-11T00:15:27.627Z,0
2016-02-11T00:16:27.614Z,0
2016-02-11T00:17:27.602Z,0
2016-02-11T00:18:27.605Z,0
2016-02-11T00:19:27.607Z,0
2016-02-11T00:20:27.595Z,0
2016-02-11T00:21:27.629Z,0
2016-02-11T00:22:27.632Z,0
2016-02-11T00:23:27.635Z,0
2016-02-11T00:24:27.622Z,0
2016-02-11T00:25:27.612Z,0
2016-02-11T00:26:27.614Z,0
2016-02-11T00:27:27.585Z,0
2016-02-11T00:28:27.604Z,0
2016-02-11T00:29:27.590Z,0
2016-02-11T00:30:27.442Z,0
2016-02-11T00:31:27.615Z,0
2016-02-11T00:32:27.592Z,0
2016-02-11T00:33:27.586Z,0
2016-02-11T00:34:27.593Z,0
2016-02-11T00:35:27.573Z,0
2016-02-11T00:36:27.607Z,0
2016-02-11T00:37:27.594Z,0
2016-02-11T00:38:27.581Z,0
2016-02-11T00:39:27.601Z,0
2016-02-11T00:40:27.587Z,0
2016-02-11T00:41:27.574Z,0
2016-02-11T00:42:27.578Z,0
2016-02-11T00:43:27.581Z,0
2016-02-11T00:44:27.568Z,0
2016-02-11T00:45:27.555Z,0
2016-02-11T00:46:27.588Z,0
2016-02-11T00:47:27.561Z,0
2016-02-11T00:48:27.563Z,0
2016-02-11T00:49:27.551Z,0
2016-02-11T00:50:27.554Z,0
2016-02-11T00:51:27.558Z,0
2016-02-11T00:52:27.561Z,0
2016-02-11T00:53:27.564Z,0
2016-02-11T00:54:27.566Z,0
2016-02-11T00:55:27.554Z,0
2016-02-11T00:56:27.557Z,0
2016-02-11T00:57:27.543Z,0
2016-02-11T00:58:27.546Z,0
2016-02-11T00:59:27.566Z,0
2016-02-11T01:00:27.553Z,0
2016-02-11T01:01:27.541Z,0
2016-02-11T01:02:27.527Z,0
2016-02-11T01:03:27.546Z,0
2016-02-11T01:04:27.407Z,0
2016-02-11T01:05:27.523Z,0
2016-02-11T01:06:27.526Z,0
2016-02-11T01:07:27.388Z,0
2016-02-11T01:08:27.517Z,0
2016-02-11T01:09:27.520Z,0
2016-02-11T01:10:27.537Z,0
2016-02-11T01:11:27.525Z,0
2016-02-11T01:12:27.528Z,0
2016-02-11T01:13:27.530Z,0
2016-02-11T01:14:27.533Z,0
2016-02-11T01:15:27.520Z,0
2016-02-11T01:16:27.523Z,0
2016-02-11T01:17:27.510Z,0
2016-02-11T01:18:27.684Z,0
2016-02-11T01:19:27.515Z,0
2016-02-11T01:20:27.503Z,0
2016-02-11T01:21:27.521Z,0
2016-02-11T01:22:27.509Z,0
2016-02-11T01:23:27.543Z,0
2016-02-11T01:24:27.499Z,0
2016-02-11T01:25:27.505Z,0
2016-02-11T01:26:27.228Z,0
2016-02-11T01:27:27.339Z,0
2016-02-11T01:28:27.498Z,0
2016-02-11T01:29:27.485Z,0
2016-02-11T01:30:27.488Z,0
2016-02-11T01:31:27.522Z,0
2016-02-11T01:32:27.493Z,0
2016-02-11T01:33:27.500Z,0
2016-02-11T01:34:27.502Z,0
2016-02-11T01:35:27.489Z,0
2016-02-11T01:36:27.477Z,0
2016-02-11T01:37:27.480Z,0
2016-02-11T01:38:27.510Z,0
2016-02-11T01:39:27.481Z,0
2016-02-11T01:40:27.469Z,0
2016-02-11T01:41:27.487Z,0
2016-02-11T01:42:27.505Z,0
2016-02-11T01:43:27.461Z,0
2016-02-11T01:44:27.479Z,0
2016-02-11T01:45:27.467Z,0
2016-02-11T01:46:27.454Z,0
2016-02-11T01:47:27.457Z,0
2016-02-11T01:48:27.474Z,0
2016-02-11T01:49:27.462Z,0
2016-02-11T01:50:27.448Z,0
2016-02-11T01:51:27.436Z,0
2016-02-11T01:52:27.454Z,0
2016-02-11T01:53:27.457Z,0
2016-02-11T01:54:27.459Z,0
2016-02-11T01:55:27.446Z,0
2016-02-11T01:56:27.450Z,0
2016-02-11T01:57:27.438Z,0
2016-02-11T01:58:27.456Z,0
2016-02-11T01:59:27.427Z,0
2016-02-11T02:00:27.429Z,0
2016-02-11T02:01:27.449Z,0
2016-02-11T02:02:27.436Z,0
2016-02-11T02:03:27.439Z,0
2016-02-11T02:04:27.426Z,0
2016-02-11T02:05:27.460Z,0
2016-02-11T02:06:27.431Z,0
2016-02-11T02:07:27.419Z,0
2016-02-11T02:08:27.422Z,0
2016-02-11T02:09:27.439Z,0
2016-02-11T02:10:27.411Z,0
2016-02-11T02:11:27.413Z,0
2016-02-11T02:12:27.416Z,0
2016-02-11T02:13:27.434Z,0
2016-02-11T02:14:27.406Z,0
2016-02-11T02:15:27.409Z,0
2016-02-11T02:16:27.412Z,0
2016-02-11T02:17:27.415Z,0
2016-02-11T02:18:27.403Z,0
2016-02-11T02:19:27.405Z,0
2016-02-11T02:20:27.392Z,0
2016-02-11T02:21:27.394Z,0
2016-02-11T02:22:27.382Z,0
2016-02-11T02:23:27.416Z,0
2016-02-11T02:24:27.639Z,0
2016-02-11T02:25:27.406Z,0
2016-02-11T02:26:27.378Z,0
2016-02-11T02:27:27.381Z,0
2016-02-11T02:28:27.384Z,0
2016-02-11T02:29:27.403Z,0
2016-02-11T02:30:27.374Z,0
2016-02-11T02:31:27.423Z,0
2016-02-11T02:32:27.379Z,0
2016-02-11T02:33:27.382Z,0
2016-02-11T02:34:27.385Z,0
2016-02-11T02:35:27.372Z,0
2016-02-11T02:36:27.375Z,0
2016-02-11T02:37:27.361Z,0
2016-02-11T02:38:27.380Z,0
2016-02-11T02:39:27.367Z,0
2016-02-11T02:40:27.370Z,0
2016-02-11T02:41:27.356Z,0
2016-02-11T02:42:27.390Z,0
2016-02-11T02:43:27.361Z,0
2016-02-11T02:44:27.349Z,0
2016-02-11T02:45:27.352Z,0
2016-02-11T02:46:27.370Z,0
2016-02-11T02:47:27.358Z,0
2016-02-11T02:48:27.344Z,0
2016-02-11T02:49:27.347Z,0
2016-02-11T02:50:27.365Z,0
2016-02-11T02:51:27.337Z,0
2016-02-11T02:52:27.354Z,0
2016-02-11T02:53:27.357Z,0
2016-02-11T02:54:27.332Z,0
2016-02-11T02:55:27.336Z,0
2016-02-11T02:56:27.339Z,0
2016-02-11T02:57:27.200Z,0
2016-02-11T02:58:27.332Z,0
2016-02-11T02:59:27.318Z,0
2016-02-11T03:00:27.337Z,0
2016-02-11T03:01:27.324Z,0
2016-02-11T03:02:27.327Z,0
2016-02-11T03:03:27.330Z,0
2016-02-11T03:04:27.324Z,0
2016-02-11T03:05:27.342Z,0
2016-02-11T03:06:27.315Z,0
2016-02-11T03:07:27.317Z,0
2016-02-11T03:08:27.320Z,0
2016-02-11T03:09:27.339Z,0
2016-02-11T03:10:27.309Z,0
2016-02-11T03:11:27.297Z,0
2016-02-11T03:12:27.315Z,0
2016-02-11T03:13:27.333Z,0
2016-02-11T03:14:27.306Z,0
2016-02-11T03:15:27.292Z,0
2016-02-11T03:16:27.312Z,0
2016-02-11T03:17:27.303Z,0
2016-02-11T03:18:27.290Z,0
2016-02-11T03:19:27.292Z,0
2016-02-11T03:20:27.296Z,0
2016-02-11T03:21:27.283Z,0
2016-02-11T03:22:27.287Z,0
2016-02-11T03:23:27.289Z,0
2016-02-11T03:24:27.295Z,0
2016-02-11T03:25:27.281Z,0
2016-02-11T03:26:27.300Z,0
2016-02-11T03:27:27.287Z,0
2016-02-11T03:28:27.307Z,0
2016-02-11T03:29:27.277Z,0
2016-02-11T03:30:27.280Z,0
2016-02-11T03:31:27.282Z,0
2016-02-11T03:32:27.285Z,0
2016-02-11T03:33:27.273Z,0
2016-02-11T03:34:27.307Z,0
2016-02-11T03:35:27.262Z,0
2016-02-11T03:36:27.265Z,0
2016-02-11T03:37:27.269Z,0
2016-02-11T03:38:27.257Z,0
2016-02-11T03:39:27.259Z,0
2016-02-11T03:40:27.261Z,0
2016-02-11T03:41:27.279Z,0
2016-02-11T03:42:27.268Z,0
2016-02-11T03:43:27.254Z,0
2016-02-11T03:44:27.257Z,0
2016-02-11T03:45:27.118Z,0
2016-02-11T03:46:27.262Z,0
2016-02-11T03:47:27.249Z,0
2016-02-11T03:48:27.252Z,0
2016-02-11T03:49:27.254Z,0
2016-02-11T03:50:27.242Z,0
2016-02-11T03:51:27.228Z,0
2016-02-11T03:52:27.231Z,0
2016-02-11T03:53:27.250Z,0
2016-02-11T03:54:27.221Z,0
2016-02-11T03:55:27.108Z,0
2016-02-11T03:56:27.221Z,0
2016-02-11T03:57:27.238Z,0
2016-02-11T03:58:27.227Z,0
2016-02-11T03:59:27.229Z,0
2016-02-11T04:00:27.232Z,0
2016-02-11T04:01:27.062Z,0
2016-02-11T04:02:27.222Z,0
2016-02-11T04:03:27.224Z,0
2016-02-11T04:04:27.211Z,0
2016-02-11T04:05:27.230Z,0
2016-02-11T04:06:27.217Z,0
2016-02-11T04:07:27.219Z,0
2016-02-11T04:08:27.224Z,0
2016-02-11T04:09:27.211Z,0
2016-02-11T04:10:27.214Z,0
2016-02-11T04:11:27.200Z,0
2016-02-11T04:12:27.203Z,0
2016-02-11T04:13:27.206Z,0
2016-02-11T04:14:27.195Z,0
2016-02-11T04:15:27.229Z,0
2016-02-11T04:16:27.200Z,0
2016-02-11T04:17:27.202Z,0
2016-02-11T04:18:27.205Z,0
2016-02-11T04:19:27.193Z,0
2016-02-11T04:20:27.211Z,0
2016-02-11T04:21:27.182Z,0
2016-02-11T04:22:27.202Z,0
2016-02-11T04:23:27.189Z,0
2016-02-11T04:24:27.175Z,0
2016-02-11T04:25:27.194Z,0
2016-02-11T04:26:27.197Z,0
2016-02-11T04:27:27.173Z,0
2016-02-11T04:28:27.207Z,0
2016-02-11T04:29:27.179Z,0
2016-02-11T04:30:27.181Z,0
2016-02-11T04:31:27.184Z,0
2016-02-11T04:32:27.155Z,0
2016-02-11T04:33:27.173Z,0
2016-02-11T04:34:27.161Z,0
2016-02-11T04:35:27.163Z,0
2016-02-11T04:36:27.166Z,0
2016-02-11T04:37:27.168Z,0
2016-02-11T04:38:27.170Z,0
2016-02-11T04:39:27.161Z,0
2016-02-11T04:40:27.148Z,0
2016-02-11T04:41:27.150Z,0
2016-02-11T04:42:27.153Z,0
2016-02-11T04:43:27.155Z,0
2016-02-11T04:44:27.143Z,0
2016-02-11T04:45:27.161Z,0
2016-02-11T04:46:27.164Z,0
2016-02-11T04:47:27.152Z,0
2016-02-11T04:48:27.140Z,0
2016-02-11T04:49:27.143Z,0
2016-02-11T04:50:27.145Z,0
2016-02-11T04:51:27.148Z,0
2016-02-11T04:52:27.150Z,0
2016-02-11T04:53:27.153Z,0
2016-02-11T04:54:27.125Z,0
2016-02-11T04:55:27.128Z,0
2016-02-11T04:56:27.131Z,0
2016-02-11T04:57:27.122Z,0
2016-02-11T04:58:27.139Z,0
2016-02-11T04:59:27.144Z,0
2016-02-11T05:00:27.116Z,0
2016-02-11T05:01:27.119Z,0
2016-02-11T05:02:27.121Z,0
2016-02-11T05:03:27.109Z,0
2016-02-11T05:04:26.971Z,0
2016-02-11T05:05:27.116Z,0
2016-02-11T05:06:27.118Z,0
2016-02-11T05:07:27.106Z,0
2016-02-11T05:08:27.108Z,0
2016-02-11T05:09:27.111Z,0
2016-02-11T05:10:27.114Z,0
2016-02-11T05:11:27.117Z,0
2016-02-11T05:12:27.103Z,0
2016-02-11T05:13:27.106Z,0
2016-02-11T05:14:27.108Z,0
2016-02-11T05:15:27.097Z,0
2016-02-11T05:16:27.099Z,0
2016-02-11T05:17:27.086Z,0
2016-02-11T05:18:27.088Z,0
2016-02-11T05:19:27.107Z,0
2016-02-11T05:20:27.077Z,0
2016-02-11T05:21:27.097Z,0
2016-02-11T05:22:27.083Z,0
2016-02-11T05:23:27.086Z,0
2016-02-11T05:24:27.073Z,0
2016-02-11T05:25:27.080Z,0
2016-02-11T05:26:27.089Z,0
2016-02-11T05:27:27.092Z,0
2016-02-11T05:28:27.078Z,0
2016-02-11T05:29:27.065Z,0
2016-02-11T05:30:27.067Z,0
2016-02-11T05:31:27.070Z,0
2016-02-11T05:32:27.089Z,0
2016-02-11T05:33:27.077Z,0
2016-02-11T05:34:27.064Z,0
2016-02-11T05:35:27.068Z,0
2016-02-11T05:36:27.070Z,0
2016-02-11T05:37:27.056Z,0
2016-02-11T05:38:27.059Z,0
2016-02-11T05:39:27.046Z,0
2016-02-11T05:40:27.065Z,0
2016-02-11T05:41:27.053Z,0
2016-02-11T05:42:27.071Z,0
2016-02-11T05:43:27.057Z,0
2016-02-11T05:44:27.045Z,0
2016-02-11T05:45:27.048Z,0
2016-02-11T05:46:27.098Z,0
2016-02-11T05:47:27.053Z,0
2016-02-11T05:48:27.040Z,0
2016-02-11T05:49:27.044Z,0
2016-02-11T05:50:27.047Z,0
2016-02-11T05:51:27.033Z,0
2016-02-11T05:52:27.036Z,0
2016-02-11T05:53:27.039Z,0
2016-02-11T05:54:27.031Z,0
2016-02-11T05:55:27.034Z,0
2016-02-11T05:56:27.021Z,0
2016-02-11T05:57:27.024Z,0
2016-02-11T05:58:27.028Z,0
2016-02-11T05:59:27.031Z,0
2016-02-11T06:00:27.034Z,0
2016-02-11T06:01:27.020Z,0
2016-02-11T06:02:27.008Z,0
2016-02-11T06:03:27.010Z,0
2016-02-11T06:04:27.028Z,0
2016-02-11T06:05:27.016Z,0
2016-02-11T06:06:27.021Z,0
2016-02-11T06:07:27.007Z,0
2016-02-11T06:08:27.010Z,0
2016-02-11T06:09:27.013Z,0
2016-02-11T06:10:27.016Z,0
2016-02-11T06:11:26.990Z,0
2016-02-11T06:12:26.994Z,4
2016-02-11T06:13:26.967Z,0
2016-02-11T06:14:26.941Z,0
2016-02-11T06:15:26.775Z,4
2016-02-11T06:16:26.913Z,4
2016-02-11T06:17:26.926Z,8
2016-02-11T06:18:26.925Z,8
2016-02-11T06:19:26.907Z,4
2016-02-11T06:20:26.889Z,8
2016-02-11T06:21:26.905Z,8
2016-02-11T06:22:26.891Z,8
2016-02-11T06:23:26.891Z,12
2016-02-11T06:24:26.876Z,12
2016-02-11T06:25:26.894Z,16
2016-02-11T06:26:26.866Z,20
2016-02-11T06:27:26.868Z,20
2016-02-11T06:28:26.870Z,24
2016-02-11T06:29:26.871Z,24
2016-02-11T06:30:26.874Z,28
2016-02-11T06:31:26.862Z,32
2016-02-11T06:32:26.864Z,36
2016-02-11T06:33:26.850Z,40
2016-02-11T06:34:26.869Z,44
2016-02-11T06:35:26.858Z,48
2016-02-11T06:36:26.860Z,60
2016-02-11T06:37:26.862Z,68
2016-02-11T06:38:26.849Z,76
2016-02-11T06:39:26.836Z,88
2016-02-11T06:40:26.855Z,96
2016-02-11T06:41:26.857Z,108
2016-02-11T06:42:26.845Z,120
2016-02-11T06:43:26.849Z,132
2016-02-11T06:44:26.836Z,148
2016-02-11T06:45:26.855Z,164
2016-02-11T06:46:26.841Z,180
2016-02-11T06:47:26.844Z,192
2016-02-11T06:48:26.831Z,204
2016-02-11T06:49:26.865Z,212
2016-02-11T06:50:26.837Z,224
2016-02-11T06:51:26.824Z,240
2016-02-11T06:52:26.687Z,264
2016-02-11T06:53:26.831Z,284
2016-02-11T06:54:27.074Z,288
2016-02-11T06:55:26.826Z,300
2016-02-11T06:56:26.828Z,320
2016-02-11T06:57:26.863Z,336
2016-02-11T06:58:26.818Z,360
2016-02-11T06:59:26.806Z,376
2016-02-11T07:00:26.810Z,392
2016-02-11T07:01:26.813Z,412
2016-02-11T07:02:26.831Z,432
2016-02-11T07:03:26.818Z,444
2016-02-11T07:04:26.805Z,460
2016-02-11T07:05:26.808Z,480
2016-02-11T07:06:26.810Z,512
2016-02-11T07:07:26.797Z,560
2016-02-11T07:08:26.800Z,592
2016-02-11T07:09:26.804Z,608
2016-02-11T07:10:26.806Z,624
2016-02-11T07:11:26.794Z,652
2016-02-11T07:12:26.796Z,684
2016-02-11T07:13:26.800Z,752
2016-02-11T07:14:26.786Z,840
2016-02-11T07:15:26.789Z,940
2016-02-11T07:16:26.791Z,1036
2016-02-11T07:17:26.779Z,1096
2016-02-11T07:18:26.782Z,1132
2016-02-11T07:19:26.784Z,1140
2016-02-11T07:20:26.802Z,1152
2016-02-11T07:21:26.774Z,1208
2016-02-11T07:22:26.777Z,1280
2016-02-11T07:23:26.785Z,1348
2016-02-11T07:24:26.771Z,1376
2016-02-11T07:25:26.774Z,1364
2016-02-11T07:26:26.777Z,1364
2016-02-11T07:27:26.764Z,1352
2016-02-11T07:28:26.766Z,1324
2016-02-11T07:29:26.770Z,1288
2016-02-11T07:30:26.772Z,1284
2016-02-11T07:31:26.775Z,1288
2016-02-11T07:32:26.762Z,1292
2016-02-11T07:33:26.749Z,1300
2016-02-11T07:34:26.767Z,1340
2016-02-11T07:35:26.754Z,1384
2016-02-11T07:36:26.757Z,1424
2016-02-11T07:37:26.759Z,1456
2016-02-11T07:38:26.762Z,1496
2016-02-11T07:39:26.747Z,1536
2016-02-11T07:40:26.750Z,1568
2016-02-11T07:41:26.752Z,1584
2016-02-11T07:42:26.740Z,1612
2016-02-11T07:43:26.743Z,1632
2016-02-11T07:44:26.745Z,1648
2016-02-11T07:45:26.754Z,1628
2016-02-11T07:46:26.741Z,1580
2016-02-11T07:47:26.587Z,1580
2016-02-11T07:48:26.746Z,1544
2016-02-11T07:49:26.749Z,1516
2016-02-11T07:50:26.752Z,1464
2016-02-11T07:51:26.723Z,1432
2016-02-11T07:52:26.756Z,1432
2016-02-11T07:53:26.728Z,1440
2016-02-11T07:54:26.733Z,1480
2016-02-11T07:55:26.724Z,1540
2016-02-11T07:56:26.726Z,1552
2016-02-11T07:57:26.716Z,1544
2016-02-11T07:58:26.719Z,1528
2016-02-11T07:59:26.722Z,1508
2016-02-11T08:00:26.708Z,1472
2016-02-11T08:01:26.711Z,1448
2016-02-11T08:02:26.714Z,1504
2016-02-11T08:03:26.734Z,1560
2016-02-11T08:04:26.736Z,1656
2016-02-11T08:05:26.723Z,1752
2016-02-11T08:06:26.709Z,1848
2016-02-11T08:07:26.728Z,1912
2016-02-11T08:08:26.714Z,1944
2016-02-11T08:09:26.703Z,1960
2016-02-11T08:10:26.705Z,1980
2016-02-11T08:11:26.709Z,1976
2016-02-11T08:12:26.712Z,1932
2016-02-11T08:13:26.698Z,1892
2016-02-11T08:14:26.700Z,1920
2016-02-11T08:15:26.703Z,2032
2016-02-11T08:16:26.690Z,2152
2016-02-11T08:17:26.709Z,2280
2016-02-11T08:18:26.695Z,2380
2016-02-11T08:19:26.715Z,2472
2016-02-11T08:20:26.671Z,2508
2016-02-11T08:21:26.704Z,2504
2016-02-11T08:22:26.693Z,2512
2016-02-11T08:23:26.679Z,2440
2016-02-11T08:24:26.666Z,2364
2016-02-11T08:25:26.684Z,2340
2016-02-11T08:26:26.534Z,2364
2016-02-11T08:27:26.709Z,2372
2016-02-11T08:28:26.679Z,2392
2016-02-11T08:29:26.667Z,2464
2016-02-11T08:30:26.685Z,2476
2016-02-11T08:31:26.672Z,2460
2016-02-11T08:32:26.675Z,2456
2016-02-11T08:33:26.662Z,2492
2016-02-11T08:34:26.525Z,2568
2016-02-11T08:35:26.683Z,2620
2016-02-11T08:36:26.670Z,2656
2016-02-11T08:37:26.672Z,2664
2016-02-11T08:38:26.660Z,2668
2016-02-11T08:39:26.695Z,2648
2016-02-11T08:40:26.666Z,2620
2016-02-11T08:41:26.668Z,2592
2016-02-11T08:42:26.671Z,2552
2016-02-11T08:43:26.674Z,2496
2016-02-11T08:44:26.661Z,2444
2016-02-11T08:45:26.664Z,2376
2016-02-11T08:46:26.682Z,2344
2016-02-11T08:47:26.652Z,2288
2016-02-11T08:48:26.671Z,2308
2016-02-11T08:49:26.658Z,2268
2016-02-11T08:50:26.693Z,2268
2016-02-11T08:51:26.664Z,2552
2016-02-11T08:52:26.666Z,2268
2016-02-11T08:53:26.638Z,2316
2016-02-11T08:54:26.657Z,2512
2016-02-11T08:55:26.659Z,2192
2016-02-11T08:56:26.646Z,2192
2016-02-11T08:57:26.657Z,2168
2016-02-11T08:58:26.643Z,2344
2016-02-11T08:59:26.646Z,2256
2016-02-11T09:00:26.649Z,2124
2016-02-11T09:01:26.668Z,2112
2016-02-11T09:02:26.655Z,2072
2016-02-11T09:03:26.658Z,2080
2016-02-11T09:04:26.646Z,2484
2016-02-11T09:05:26.650Z,2484
2016-02-11T09:06:26.652Z,2484
2016-02-11T09:07:26.639Z,2480
2016-02-11T09:08:26.657Z,2476
2016-02-11T09:09:26.644Z,2484
2016-02-11T09:10:26.631Z,2464
2016-02-11T09:11:26.681Z,2312
2016-02-11T09:12:26.636Z,2200
2016-02-11T09:13:26.656Z,2204
2016-02-11T09:14:26.643Z,2136
2016-02-11T09:15:26.631Z,2284
2016-02-11T09:16:26.649Z,2312
2016-02-11T09:17:26.651Z,2276
2016-02-11T09:18:26.670Z,2248
2016-02-11T09:19:26.642Z,2212
2016-02-11T09:20:26.679Z,2208
2016-02-11T09:21:26.635Z,2136
2016-02-11T09:22:26.622Z,2176
2016-02-11T09:23:26.641Z,2172
2016-02-11T09:24:26.643Z,2156
2016-02-11T09:25:26.630Z,2144
2016-02-11T09:26:26.648Z,2132
2016-02-11T09:27:26.652Z,2128
2016-02-11T09:28:26.638Z,2124
2016-02-11T09:29:26.707Z,2116
2016-02-11T09:30:26.623Z,2112
2016-02-11T09:31:26.641Z,2112
2016-02-11T09:32:26.628Z,2100
2016-02-11T09:33:26.647Z,2088
2016-02-11T09:34:26.463Z,2172
2016-02-11T09:35:26.621Z,2148
2016-02-11T09:36:26.655Z,2092
2016-02-11T09:37:26.626Z,2068
2016-02-11T09:38:26.628Z,2064
2016-02-11T09:39:26.617Z,2056
2016-02-11T09:40:26.619Z,2052
2016-02-11T09:41:26.637Z,2028
2016-02-11T09:42:26.625Z,2040
2016-02-11T09:43:26.627Z,2040
2016-02-11T09:44:26.630Z,1996
2016-02-11T09:45:26.617Z,1968
2016-02-11T09:46:26.619Z,1968
2016-02-11T09:47:26.655Z,2000
2016-02-11T09:48:26.627Z,2104
2016-02-11T09:49:26.645Z,2000
2016-02-11T09:50:26.617Z,1956
2016-02-11T09:51:26.636Z,1948
2016-02-11T09:52:26.623Z,1944
2016-02-11T09:53:26.625Z,1948
2016-02-11T09:54:26.628Z,1948
2016-02-11T09:55:26.661Z,1952
2016-02-11T09:56:26.633Z,1952
2016-02-11T09:57:26.605Z,1952
2016-02-11T09:58:26.624Z,1952
2016-02-11T09:59:26.627Z,1944
2016-02-11T10:00:26.644Z,1960
2016-02-11T10:01:26.618Z,1952
2016-02-11T10:02:26.636Z,1988
2016-02-11T10:03:26.623Z,1960
2016-02-11T10:04:26.657Z,1948
2016-02-11T10:05:26.629Z,1948
2016-02-11T10:06:26.615Z,1948
2016-02-11T10:07:26.634Z,1948
2016-02-11T10:08:26.620Z,1944
2016-02-11T10:09:26.624Z,1956
2016-02-11T10:10:26.626Z,1876
2016-02-11T10:11:26.613Z,1952
2016-02-11T10:12:26.632Z,2060
2016-02-11T10:13:26.619Z,2248
2016-02-11T10:14:26.622Z,2276
2016-02-11T10:15:26.610Z,2304
2016-02-11T10:16:26.643Z,2516
2016-02-11T10:17:26.646Z,2344
2016-02-11T10:18:26.634Z,2236
2016-02-11T10:19:26.636Z,2124
2016-02-11T10:20:26.622Z,2056
2016-02-11T10:21:26.610Z,1992
2016-02-11T10:22:26.628Z,1944
2016-02-11T10:23:26.475Z,1928
2016-02-11T10:24:26.650Z,1928
2016-02-11T10:25:26.605Z,1948
2016-02-11T10:26:26.608Z,1960
2016-02-11T10:27:26.642Z,1924
2016-02-11T10:28:26.613Z,1948
2016-02-11T10:29:26.631Z,1936
2016-02-11T10:30:26.619Z,1932
2016-02-11T10:31:26.684Z,1948
2016-02-11T10:32:26.626Z,1944
2016-02-11T10:33:26.614Z,1928
2016-02-11T10:34:26.616Z,1948
2016-02-11T10:35:26.620Z,1944
2016-02-11T10:36:26.623Z,1964
2016-02-11T10:37:26.610Z,1984
2016-02-11T10:38:26.628Z,2000
2016-02-11T10:39:26.678Z,2012
2016-02-11T10:40:26.634Z,1984
2016-02-11T10:41:26.637Z,1988
2016-02-11T10:42:26.640Z,2000
2016-02-11T10:43:26.611Z,1992
2016-02-11T10:44:26.615Z,2008
2016-02-11T10:45:26.617Z,2004
2016-02-11T10:46:26.604Z,2000
2016-02-11T10:47:26.623Z,1972
2016-02-11T10:48:26.609Z,1928
2016-02-11T10:49:26.613Z,2124
2016-02-11T10:50:26.646Z,2068
2016-02-11T10:51:26.634Z,2220
2016-02-11T10:52:26.467Z,2560
2016-02-11T10:53:26.641Z,2304
2016-02-11T10:54:26.613Z,2068
2016-02-11T10:55:26.662Z,2016
2016-02-11T10:56:26.603Z,2168
2016-02-11T10:57:26.621Z,2100
2016-02-11T10:58:26.625Z,2076
2016-02-11T10:59:26.613Z,2068
2016-02-11T11:00:26.616Z,2140
2016-02-11T11:01:26.619Z,2376
2016-02-11T11:02:26.636Z,2640
2016-02-11T11:03:26.611Z,2716
2016-02-11T11:04:26.613Z,2724
2016-02-11T11:05:26.616Z,2996
2016-02-11T11:06:26.619Z,2844
2016-02-11T11:07:26.621Z,2516
2016-02-11T11:08:26.624Z,2320
2016-02-11T11:09:26.643Z,2248
2016-02-11T11:10:26.754Z,2304
2016-02-11T11:11:26.616Z,2300
2016-02-11T11:12:26.619Z,2132
2016-02-11T11:13:26.622Z,2164
2016-02-11T11:14:26.625Z,2524
2016-02-11T11:15:26.627Z,2456
2016-02-11T11:16:26.645Z,2292
2016-02-11T11:17:26.618Z,2296
2016-02-11T11:18:26.621Z,2496
2016-02-11T11:19:26.623Z,2768
2016-02-11T11:20:26.610Z,2808
2016-02-11T11:21:26.613Z,2720
2016-02-11T11:22:26.632Z,2636
2016-02-11T11:23:26.618Z,2696
2016-02-11T11:24:26.621Z,2672
2016-02-11T11:25:26.624Z,2568
2016-02-11T11:26:26.624Z,2480
2016-02-11T11:27:26.626Z,2388
2016-02-11T11:28:26.645Z,2332
2016-02-11T11:29:26.631Z,2304
2016-02-11T11:30:26.619Z,2300
2016-02-11T11:31:26.637Z,2252
2016-02-11T11:32:26.624Z,2384
2016-02-11T11:33:26.612Z,2372
2016-02-11T11:34:26.470Z,2340
2016-02-11T11:35:26.613Z,2384
2016-02-11T11:36:26.617Z,2444
2016-02-11T11:37:26.650Z,2452
2016-02-11T11:38:26.621Z,2476
2016-02-11T11:39:26.641Z,2764
2016-02-11T11:40:26.611Z,3208
2016-02-11T11:41:26.630Z,3604
2016-02-11T11:42:26.616Z,3352
2016-02-11T11:43:26.620Z,3068
2016-02-11T11:44:26.622Z,3064
2016-02-11T11:45:26.626Z,3160
2016-02-11T11:46:26.628Z,3196
2016-02-11T11:47:26.616Z,3524
2016-02-11T11:48:26.634Z,3304
2016-02-11T11:49:26.621Z,3016
2016-02-11T11:50:26.802Z,2512
2016-02-11T11:51:26.324Z,2592
2016-02-11T11:52:26.469Z,2676
2016-02-11T11:53:26.533Z,2868
2016-02-11T11:54:26.619Z,3192
2016-02-11T11:55:26.668Z,3080
2016-02-11T11:56:26.452Z,2872
2016-02-11T11:57:26.306Z,2676
2016-02-11T11:58:26.465Z,2396
2016-02-11T11:59:26.650Z,2560
2016-02-11T12:00:26.856Z,2684
2016-02-11T12:01:26.624Z,2764
2016-02-11T12:02:26.673Z,2672
2016-02-11T12:03:26.630Z,2544
2016-02-11T12:04:26.664Z,2468
2016-02-11T12:05:26.635Z,2456
2016-02-11T12:06:26.622Z,2396
2016-02-11T12:07:26.624Z,2344
2016-02-11T12:08:26.643Z,2392
2016-02-11T12:09:26.630Z,2280
2016-02-11T12:10:26.617Z,2596
2016-02-11T12:11:26.636Z,2772
2016-02-11T12:12:26.622Z,2900
2016-02-11T12:13:26.625Z,2820
2016-02-11T12:14:26.612Z,2564
2016-02-11T12:15:26.630Z,2396
2016-02-11T12:16:26.633Z,2460
2016-02-11T12:17:26.636Z,2812
2016-02-11T12:18:26.639Z,2984
2016-02-11T12:19:26.626Z,2992
2016-02-11T12:20:26.644Z,2836
2016-02-11T12:21:26.615Z,2644
2016-02-11T12:22:26.665Z,2452
2016-02-11T12:23:26.622Z,2292
2016-02-11T12:24:26.626Z,2212
2016-02-11T12:25:26.644Z,2172
2016-02-11T12:26:26.631Z,2144
2016-02-11T12:27:26.461Z,2152
2016-02-11T12:28:26.623Z,2160
2016-02-11T12:29:26.642Z,2172
2016-02-11T12:30:26.629Z,2188
2016-02-11T12:31:26.622Z,2248
2016-02-11T12:32:26.625Z,2296
2016-02-11T12:33:26.628Z,2336
2016-02-11T12:34:26.631Z,2372
2016-02-11T12:35:26.633Z,2352
2016-02-11T12:36:26.636Z,2340
2016-02-11T12:37:26.639Z,2388
2016-02-11T12:38:26.627Z,2520
2016-02-11T12:39:26.630Z,2616
2016-02-11T12:40:26.617Z,2648
2016-02-11T12:41:26.619Z,2736
2016-02-11T12:42:26.716Z,2820
2016-02-11T12:43:26.641Z,2888
2016-02-11T12:44:26.643Z,2880
2016-02-11T12:45:26.647Z,2792
2016-02-11T12:46:26.633Z,2656
2016-02-11T12:47:26.636Z,2496
2016-02-11T12:48:26.639Z,2332
2016-02-11T12:49:26.627Z,2200
2016-02-11T12:50:26.630Z,2088
2016-02-11T12:51:26.647Z,2016
2016-02-11T12:52:26.635Z,1964
2016-02-11T12:53:26.637Z,1896
2016-02-11T12:54:26.625Z,1876
2016-02-11T12:55:26.627Z,1864
2016-02-11T12:56:26.630Z,1864
2016-02-11T12:57:26.649Z,1844
2016-02-11T12:58:26.635Z,1852
2016-02-11T12:59:26.669Z,1884
2016-02-11T13:00:26.626Z,1924
2016-02-11T13:01:26.634Z,1956
2016-02-11T13:02:26.636Z,1972
2016-02-11T13:03:26.639Z,2008
2016-02-11T13:04:26.642Z,2080
2016-02-11T13:05:26.629Z,2152
2016-02-11T13:06:26.648Z,2180
2016-02-11T13:07:26.650Z,2188
2016-02-11T13:08:26.621Z,2144
2016-02-11T13:09:26.624Z,2084
2016-02-11T13:10:26.627Z,2056
2016-02-11T13:11:26.647Z,2044
2016-02-11T13:12:26.635Z,2032
2016-02-11T13:13:26.638Z,2040
2016-02-11T13:14:26.641Z,2020
2016-02-11T13:15:26.643Z,1980
2016-02-11T13:16:26.630Z,1964
2016-02-11T13:17:26.649Z,2000
2016-02-11T13:18:26.651Z,2024
2016-02-11T13:19:26.624Z,2040
2016-02-11T13:20:26.642Z,2072
2016-02-11T13:21:26.629Z,2048
2016-02-11T13:22:26.476Z,2024
2016-02-11T13:23:26.479Z,1976
2016-02-11T13:24:26.654Z,1952
2016-02-11T13:25:26.642Z,1928
2016-02-11T13:26:26.628Z,1916
2016-02-11T13:27:26.630Z,1920
2016-02-11T13:28:26.633Z,1908
2016-02-11T13:29:26.652Z,1912
2016-02-11T13:30:26.639Z,1892
2016-02-11T13:31:26.641Z,1848
2016-02-11T13:32:26.644Z,1840
2016-02-11T13:33:26.633Z,1892
2016-02-11T13:34:26.636Z,1908
2016-02-11T13:35:26.654Z,1936
2016-02-11T13:36:26.641Z,1992
2016-02-11T13:37:26.832Z,2016
2016-02-11T13:38:26.631Z,2016
2016-02-11T13:39:26.636Z,2004
2016-02-11T13:40:26.622Z,2020
2016-02-11T13:41:26.655Z,2128
2016-02-11T13:42:26.659Z,2376
2016-02-11T13:43:26.645Z,2600
2016-02-11T13:44:26.648Z,2704
2016-02-11T13:45:26.635Z,2728
2016-02-11T13:46:26.622Z,2732
2016-02-11T13:47:26.641Z,2692
2016-02-11T13:48:26.644Z,2696
2016-02-11T13:49:26.631Z,2684
2016-02-11T13:50:26.634Z,2676
2016-02-11T13:51:26.636Z,2672
2016-02-11T13:52:26.639Z,2652
2016-02-11T13:53:26.642Z,2644
2016-02-11T13:54:26.644Z,2660
2016-02-11T13:55:26.632Z,2604
2016-02-11T13:56:26.650Z,2548
2016-02-11T13:57:26.654Z,2504
2016-02-11T13:58:26.641Z,2444
2016-02-11T13:59:26.627Z,2424